Terminal Aerodrome Forecast
Issued by NWS Pueblo, CO

Home | Current Version | Previous Version | Text Only | Print | Product List | Glossary On
Versions: 1 2 3 4 5 6 7 8 9 10 11 12 13 14 15 16 17 18 19 20 21 22 23 24 25 26
000
FTUS45 KPUB 250525
TAFCOS
TAF
KCOS 250525Z 2506/2606 36007KT P6SM SCT200
     FM251600 32008KT P6SM FEW200
     FM252000 15008KT P6SM SCT200
     FM260200 34006KT P6SM SCT200=

USA.gov is the U.S. government's official web portal to all federal, state and local government web resources and services.